Etusivu
METAR-TAF:

METAR-TAF

Lentoasemat :

Bejaïa, Algeria

Leveyspiiri: 36-43N, Pituuspiiri: 005-04E, korkeus merenpinnasta: 2 m

Tämänhetkinen sää

Tämä raportti tehtiin 51 minuuttia sitten, kello 04.00 UTC
Tuuli 5 kn lounaasta
Lämpötila 13°C
Kosteus 88%
Ilmanpaine 1013 hPa
Näkyvyys 10 km tai enemmän
Muutamia pilviä 1600 ft:n korkeudessa

METAR: DAAE 310400Z 23005KT 9999 FEW016 13/11 Q1013

Aika: 05:51 (04:51 UTC)

Sääennuste

Tämä raportti tehtiin 5 tuntia ja 51 minuuttia sitten, kello 23.00 UTC
Ennuste voimassa 31. päivästä klo 00 UTC - 31. päivään klo 24 UTC
Tuuli 10 kn etelästä/lounaasta
Näkyvyys 10 km tai enemmän
Muutamia pilviä 2000 ft:n korkeudessa
Tulossa
31. päivästä klo 05 UTC - 31. päivään klo 07 UTC
Tuuli 8 kn idästä/koillisesta
Ajoittain
31. päivästä klo 18 UTC - 31. päivään klo 24 UTC
Muutamia pilviä 2300 ft:n korkeudessa, Kasvava cumulus-pilvi.

TAF: DAAE 302300Z 3100/3124 20010KT 9999 FEW020 BECMG 3105/3107 06008KT TEMPO 3118/3124 FEW023TCU

Säähavainnot ja -ennusteet yli 4000 lentoasemalta (METAR- ja TAF-raportit).

Käytössä olevat sääasemat on merkitty karttaan keltaisilla ja punaisilla pisteillä.

Aseta hiiri pisteen päälle nähdäksesi sääaseman nimen.

Klikkaa sitten nähdäksesi säähavainnot ja -ennusteet.

Kartan vaihtaminen: klikkaa mustalla rastilla varustettuja vihreitä pisteitä, niin voit zoomata sisään; viivalla varustettua vihreää pistettä, niin voit zoomata ulos tai vihreitä nuolia, niin pääset viereisille kartoille.


METAR-TAF: